sensor_id;sensor_type;location;lat;lon;timestamp;pressure;altitude;pressure_sealevel;temperature;humidity
15260;BME280;34462;51.368;12.364;2023-05-10T00:01:41;20098.38;;;-141.84;58.01
15260;BME280;34462;51.368;12.364;2023-05-10T00:04:09;20082.13;;;-141.84;58.02
15260;BME280;34462;51.368;12.364;2023-05-10T00:06:37;20076.03;;;-141.84;58.50
15260;BME280;34462;51.368;12.364;2023-05-10T00:09:06;20067.88;;;-141.84;58.97
15260;BME280;34462;51.368;12.364;2023-05-10T00:11:35;20102.44;;;-141.84;58.21
15260;BME280;34462;51.368;12.364;2023-05-10T00:14:03;20090.25;;;-141.84;58.71
15260;BME280;34462;51.368;12.364;2023-05-10T00:16:32;20090.25;;;-141.84;58.70
15260;BME280;34462;51.368;12.364;2023-05-10T00:19:00;20086.19;;;-141.84;58.51
15260;BME280;34462;51.368;12.364;2023-05-10T00:21:28;20069.94;;;-141.84;58.65
15260;BME280;34462;51.368;12.364;2023-05-10T00:23:56;20061.78;;;-141.84;58.77
15260;BME280;34462;51.368;12.364;2023-05-10T00:26:25;20047.56;;;-141.84;58.87
15260;BME280;34462;51.368;12.364;2023-05-10T00:28:54;20029.28;;;-141.84;59.13
15260;BME280;34462;51.368;12.364;2023-05-10T00:31:23;20017.09;;;-141.84;59.48
15260;BME280;34462;51.368;12.364;2023-05-10T00:33:51;20049.59;;;-141.84;59.38
15260;BME280;34462;51.368;12.364;2023-05-10T00:36:19;20047.56;;;-141.84;59.00
15260;BME280;34462;51.368;12.364;2023-05-10T00:38:48;20065.84;;;-141.84;58.68
15260;BME280;34462;51.368;12.364;2023-05-10T00:41:16;20078.06;;;-141.84;58.92
15260;BME280;34462;51.368;12.364;2023-05-10T00:43:44;20049.59;;;-141.84;58.95
15260;BME280;34462;51.368;12.364;2023-05-10T00:46:15;20029.28;;;-141.84;58.23
15260;BME280;34462;51.368;12.364;2023-05-10T00:48:44;20069.94;;;-141.84;58.25
15260;BME280;34462;51.368;12.364;2023-05-10T00:51:13;20035.38;;;-141.84;58.14
15260;BME280;34462;51.368;12.364;2023-05-10T00:53:42;20084.16;;;-141.84;58.61
15260;BME280;34462;51.368;12.364;2023-05-10T00:56:12;20084.16;;;-141.84;58.54
15260;BME280;34462;51.368;12.364;2023-05-10T00:58:40;20080.09;;;-141.84;58.42
15260;BME280;34462;51.368;12.364;2023-05-10T01:01:10;20039.44;;;-141.84;58.58
15260;BME280;34462;51.368;12.364;2023-05-10T01:03:40;20049.59;;;-141.84;58.94
15260;BME280;34462;51.368;12.364;2023-05-10T01:06:08;20045.53;;;-141.84;59.17
15260;BME280;34462;51.368;12.364;2023-05-10T01:08:38;20059.75;;;-141.84;58.35
15260;BME280;34462;51.368;12.364;2023-05-10T01:11:07;20053.66;;;-141.84;58.88
15260;BME280;34462;51.368;12.364;2023-05-10T01:13:37;20049.59;;;-141.84;59.43
15260;BME280;34462;51.368;12.364;2023-05-10T01:16:07;20041.47;;;-141.84;58.99
15260;BME280;34462;51.368;12.364;2023-05-10T01:18:40;20049.59;;;-141.84;59.51
15260;BME280;34462;51.368;12.364;2023-05-10T01:21:21;20041.47;;;-141.84;59.67
15260;BME280;34462;51.368;12.364;2023-05-10T01:24:32;20008.94;;;-141.84;59.79
15260;BME280;34462;51.368;12.364;2023-05-10T01:27:42;20067.88;;;-141.84;59.58
15260;BME280;34462;51.368;12.364;2023-05-10T01:31:08;20023.19;;;-141.84;59.36
15260;BME280;34462;51.368;12.364;2023-05-10T01:33:48;20004.88;;;-141.84;59.97
15260;BME280;34462;51.368;12.364;2023-05-10T01:36:27;20025.22;;;-141.84;60.09
15260;BME280;34462;51.368;12.364;2023-05-10T01:39:05;20037.41;;;-141.84;59.65
15260;BME280;34462;51.368;12.364;2023-05-10T01:41:45;20017.09;;;-141.84;59.88
15260;BME280;34462;51.368;12.364;2023-05-10T01:44:24;20015.03;;;-141.84;60.16
15260;BME280;34462;51.368;12.364;2023-05-10T01:47:06;19990.66;;;-141.84;60.54
15260;BME280;34462;51.368;12.364;2023-05-10T01:49:43;20002.84;;;-141.84;59.83
15260;BME280;34462;51.368;12.364;2023-05-10T01:52:18;20017.09;;;-141.84;60.23
15260;BME280;34462;51.368;12.364;2023-05-10T01:54:54;20004.88;;;-141.84;60.44
15260;BME280;34462;51.368;12.364;2023-05-10T01:57:27;20013.00;;;-141.84;60.56
15260;BME280;34462;51.368;12.364;2023-05-10T02:00:01;20049.59;;;-141.84;60.44
15260;BME280;34462;51.368;12.364;2023-05-10T02:02:36;20035.38;;;-141.84;59.98
15260;BME280;34462;51.368;12.364;2023-05-10T02:05:08;19990.66;;;-141.84;60.70
15260;BME280;34462;51.368;12.364;2023-05-10T02:07:37;19998.78;;;-141.84;60.67
15260;BME280;34462;51.368;12.364;2023-05-10T02:10:09;20043.50;;;-141.84;60.38
15260;BME280;34462;51.368;12.364;2023-05-10T02:12:42;19972.38;;;-141.84;61.02
15260;BME280;34462;51.368;12.364;2023-05-10T02:15:14;20019.13;;;-141.84;60.88
15260;BME280;34462;51.368;12.364;2023-05-10T02:17:44;20013.00;;;-141.84;61.05
15260;BME280;34462;51.368;12.364;2023-05-10T02:20:18;19982.53;;;-141.84;61.17
15260;BME280;34462;51.368;12.364;2023-05-10T02:22:49;19996.75;;;-141.84;61.27
15260;BME280;34462;51.368;12.364;2023-05-10T02:25:21;19994.72;;;-141.84;61.24
15260;BME280;34462;51.368;12.364;2023-05-10T02:27:51;19986.59;;;-141.84;61.69
15260;BME280;34462;51.368;12.364;2023-05-10T02:30:23;19990.66;;;-141.84;61.31
15260;BME280;34462;51.368;12.364;2023-05-10T02:32:52;20002.84;;;-141.84;61.05
15260;BME280;34462;51.368;12.364;2023-05-10T02:35:24;19992.69;;;-141.84;61.03
15260;BME280;34462;51.368;12.364;2023-05-10T02:37:54;19988.63;;;-141.84;61.21
15260;BME280;34462;51.368;12.364;2023-05-10T02:40:27;19992.69;;;-141.84;62.07
15260;BME280;34462;51.368;12.364;2023-05-10T02:42:59;19984.56;;;-141.84;62.24
15260;BME280;34462;51.368;12.364;2023-05-10T02:45:31;19970.34;;;-141.84;61.93
15260;BME280;34462;51.368;12.364;2023-05-10T02:48:00;19964.25;;;-141.84;62.18
15260;BME280;34462;51.368;12.364;2023-05-10T02:50:32;19962.19;;;-141.84;62.56
15260;BME280;34462;51.368;12.364;2023-05-10T02:53:09;19960.16;;;-141.84;62.25
15260;BME280;34462;51.368;12.364;2023-05-10T02:55:40;19929.69;;;-141.84;62.58
15260;BME280;34462;51.368;12.364;2023-05-10T02:58:09;19939.84;;;-141.84;62.91
15260;BME280;34462;51.368;12.364;2023-05-10T03:00:37;19976.44;;;-141.84;62.64
15260;BME280;34462;51.368;12.364;2023-05-10T03:03:05;19917.50;;;-141.84;63.18
15260;BME280;34462;51.368;12.364;2023-05-10T03:05:35;19962.19;;;-141.84;62.36
15260;BME280;34462;51.368;12.364;2023-05-10T03:08:04;19952.03;;;-141.84;62.92
15260;BME280;34462;51.368;12.364;2023-05-10T03:10:38;19968.31;;;-141.84;62.72
15260;BME280;34462;51.368;12.364;2023-05-10T03:13:24;19935.78;;;-141.84;63.14
15260;BME280;34462;51.368;12.364;2023-05-10T03:16:04;19980.50;;;-141.84;62.58
15260;BME280;34462;51.368;12.364;2023-05-10T03:18:44;19939.84;;;-141.84;62.96
15260;BME280;34462;51.368;12.364;2023-05-10T03:21:16;19968.31;;;-141.84;63.06
15260;BME280;34462;51.368;12.364;2023-05-10T03:23:57;19958.13;;;-141.84;63.33
15260;BME280;34462;51.368;12.364;2023-05-10T03:26:28;19919.53;;;-141.84;63.31
15260;BME280;34462;51.368;12.364;2023-05-10T03:28:58;19943.91;;;-141.84;62.46
15260;BME280;34462;51.368;12.364;2023-05-10T03:31:27;19958.13;;;-141.84;62.51
15260;BME280;34462;51.368;12.364;2023-05-10T03:33:55;19947.97;;;-141.84;62.99
15260;BME280;34462;51.368;12.364;2023-05-10T03:36:24;19939.84;;;-141.84;62.86
15260;BME280;34462;51.368;12.364;2023-05-10T03:38:53;19974.41;;;-141.84;63.20
15260;BME280;34462;51.368;12.364;2023-05-10T03:41:21;19947.97;;;-141.84;62.72
15260;BME280;34462;51.368;12.364;2023-05-10T03:43:49;19945.94;;;-141.84;62.86
15260;BME280;34462;51.368;12.364;2023-05-10T03:46:17;19958.13;;;-141.84;62.77
15260;BME280;34462;51.368;12.364;2023-05-10T03:48:46;19994.72;;;-141.84;62.16
15260;BME280;34462;51.368;12.364;2023-05-10T03:51:14;19952.03;;;-141.84;62.43
15260;BME280;34462;51.368;12.364;2023-05-10T03:53:43;19974.41;;;-141.84;62.41
15260;BME280;34462;51.368;12.364;2023-05-10T03:56:12;19992.69;;;-141.84;61.96
15260;BME280;34462;51.368;12.364;2023-05-10T03:58:40;19964.25;;;-141.84;61.95
15260;BME280;34462;51.368;12.364;2023-05-10T04:01:08;20019.13;;;-141.84;61.20
15260;BME280;34462;51.368;12.364;2023-05-10T04:03:36;20008.94;;;-141.84;60.16
15260;BME280;34462;51.368;12.364;2023-05-10T04:06:05;20037.41;;;-141.84;60.18
15260;BME280;34462;51.368;12.364;2023-05-10T04:08:35;20035.38;;;-141.84;59.90
15260;BME280;34462;51.368;12.364;2023-05-10T04:11:10;20049.59;;;-141.84;59.71
15260;BME280;34462;51.368;12.364;2023-05-10T04:13:38;20076.03;;;-141.84;58.96
15260;BME280;34462;51.368;12.364;2023-05-10T04:16:06;20069.94;;;-141.84;59.46
15260;BME280;34462;51.368;12.364;2023-05-10T04:18:35;20055.69;;;-141.84;59.32
15260;BME280;34462;51.368;12.364;2023-05-10T04:21:03;20086.19;;;-141.84;58.52
15260;BME280;34462;51.368;12.364;2023-05-10T04:23:31;20088.22;;;-141.84;59.20
15260;BME280;34462;51.368;12.364;2023-05-10T04:26:00;20092.28;;;-141.84;58.37
15260;BME280;34462;51.368;12.364;2023-05-10T04:28:30;20053.66;;;-141.84;59.00
15260;BME280;34462;51.368;12.364;2023-05-10T04:31:02;20080.09;;;-141.84;58.80
15260;BME280;34462;51.368;12.364;2023-05-10T04:33:32;20112.59;;;-141.84;58.61
15260;BME280;34462;51.368;12.364;2023-05-10T04:36:00;20118.69;;;-141.84;57.95
15260;BME280;34462;51.368;12.364;2023-05-10T04:38:29;20141.06;;;-141.84;57.76
15260;BME280;34462;51.368;12.364;2023-05-10T04:41:05;20163.41;;;-141.84;57.89
15260;BME280;34462;51.368;12.364;2023-05-10T04:43:35;20151.22;;;-141.84;57.64
15260;BME280;34462;51.368;12.364;2023-05-10T04:46:05;20163.41;;;-141.84;57.44
15260;BME280;34462;51.368;12.364;2023-05-10T04:48:34;20206.09;;;-141.84;57.36
15260;BME280;34462;51.368;12.364;2023-05-10T04:51:02;20220.34;;;-141.84;56.20
15260;BME280;34462;51.368;12.364;2023-05-10T04:53:31;20281.31;;;-141.84;55.57
15260;BME280;34462;51.368;12.364;2023-05-10T04:56:00;20504.91;;;-141.84;52.18
15260;BME280;34462;51.368;12.364;2023-05-10T04:58:28;20809.81;;;-141.84;47.81
15260;BME280;34462;51.368;12.364;2023-05-10T05:01:04;20960.25;;;-141.84;45.17
15260;BME280;34462;51.368;12.364;2023-05-10T05:03:33;21222.53;;;-141.84;41.77
15260;BME280;34462;51.368;12.364;2023-05-10T05:06:02;21257.09;;;-141.84;41.29
15260;BME280;34462;51.368;12.364;2023-05-10T05:08:30;21301.81;;;-141.84;40.79
15260;BME280;34462;51.368;12.364;2023-05-10T05:10:58;21340.44;;;-141.84;40.64
15260;BME280;34462;51.368;12.364;2023-05-10T05:13:27;21366.88;;;-141.84;40.44
15260;BME280;34462;51.368;12.364;2023-05-10T05:15:56;21259.13;;;-141.84;41.10
15260;BME280;34462;51.368;12.364;2023-05-10T05:18:25;21216.41;;;-141.84;42.01
15260;BME280;34462;51.368;12.364;2023-05-10T05:20:53;21155.44;;;-141.84;42.92
15260;BME280;34462;51.368;12.364;2023-05-10T05:23:21;21057.84;;;-141.84;43.58
15260;BME280;34462;51.368;12.364;2023-05-10T05:25:51;21061.91;;;-141.84;44.25
15260;BME280;34462;51.368;12.364;2023-05-10T05:28:20;21019.22;;;-141.84;44.21
15260;BME280;34462;51.368;12.364;2023-05-10T05:30:48;21011.09;;;-141.84;44.57
15260;BME280;34462;51.368;12.364;2023-05-10T05:33:18;20994.81;;;-141.84;44.80
15260;BME280;34462;51.368;12.364;2023-05-10T05:35:46;20976.53;;;-141.84;44.90
15260;BME280;34462;51.368;12.364;2023-05-10T05:38:17;20970.41;;;-141.84;45.28
15260;BME280;34462;51.368;12.364;2023-05-10T05:40:45;20990.75;;;-141.84;45.43
15260;BME280;34462;51.368;12.364;2023-05-10T05:43:13;20960.25;;;-141.84;45.12
15260;BME280;34462;51.368;12.364;2023-05-10T05:45:42;20988.72;;;-141.84;45.26
15260;BME280;34462;51.368;12.364;2023-05-10T05:48:10;20990.75;;;-141.84;45.36
15260;BME280;34462;51.368;12.364;2023-05-10T05:50:39;20996.84;;;-141.84;45.26
15260;BME280;34462;51.368;12.364;2023-05-10T05:53:08;21000.91;;;-141.84;45.50
15260;BME280;34462;51.368;12.364;2023-05-10T05:55:37;21031.41;;;-141.84;45.08
15260;BME280;34462;51.368;12.364;2023-05-10T05:58:05;20946.03;;;-141.84;45.44
15260;BME280;34462;51.368;12.364;2023-05-10T06:00:33;20883.00;;;-141.84;45.82
15260;BME280;34462;51.368;12.364;2023-05-10T06:03:02;20856.56;;;-141.84;46.05
15260;BME280;34462;51.368;12.364;2023-05-10T06:05:30;20785.44;;;-141.84;46.45
15260;BME280;34462;51.368;12.364;2023-05-10T06:08:01;20781.38;;;-141.84;47.26
15260;BME280;34462;51.368;12.364;2023-05-10T06:10:29;20752.91;;;-141.84;47.50
15260;BME280;34462;51.368;12.364;2023-05-10T06:12:57;20756.97;;;-141.84;47.57
15260;BME280;34462;51.368;12.364;2023-05-10T06:15:25;20761.03;;;-141.84;48.08
15260;BME280;34462;51.368;12.364;2023-05-10T06:17:54;20811.84;;;-141.84;48.12
15260;BME280;34462;51.368;12.364;2023-05-10T06:20:22;20746.81;;;-141.84;47.97
15260;BME280;34462;51.368;12.364;2023-05-10T06:22:50;20779.31;;;-141.84;48.18
15260;BME280;34462;51.368;12.364;2023-05-10T06:25:20;20748.84;;;-141.84;47.66
15260;BME280;34462;51.368;12.364;2023-05-10T06:27:48;20765.09;;;-141.84;47.51
15260;BME280;34462;51.368;12.364;2023-05-10T06:30:19;20777.28;;;-141.84;47.67
15260;BME280;34462;51.368;12.364;2023-05-10T06:32:49;20773.22;;;-141.84;47.50
15260;BME280;34462;51.368;12.364;2023-05-10T06:35:18;20785.44;;;-141.84;47.76
15260;BME280;34462;51.368;12.364;2023-05-10T06:37:46;20856.56;;;-141.84;47.93
15260;BME280;34462;51.368;12.364;2023-05-10T06:40:16;20866.75;;;-141.84;47.34
15260;BME280;34462;51.368;12.364;2023-05-10T06:42:46;20935.88;;;-141.84;46.57
15260;BME280;34462;51.368;12.364;2023-05-10T06:45:15;20927.72;;;-141.84;45.81
15260;BME280;34462;51.368;12.364;2023-05-10T06:47:44;21055.81;;;-141.84;45.71
15260;BME280;34462;51.368;12.364;2023-05-10T06:50:12;21155.44;;;-141.84;44.60
15260;BME280;34462;51.368;12.364;2023-05-10T06:52:41;21190.00;;;-141.84;43.55
15260;BME280;34462;51.368;12.364;2023-05-10T06:55:10;21253.00;;;-141.84;43.69
15260;BME280;34462;51.368;12.364;2023-05-10T06:57:38;21291.66;;;-141.84;43.15
15260;BME280;34462;51.368;12.364;2023-05-10T07:00:09;21316.03;;;-141.84;43.36
15260;BME280;34462;51.368;12.364;2023-05-10T07:02:37;21301.81;;;-141.84;42.56
15260;BME280;34462;51.368;12.364;2023-05-10T07:05:06;21285.53;;;-141.84;42.96
15260;BME280;34462;51.368;12.364;2023-05-10T07:07:34;21289.59;;;-141.84;43.11
15260;BME280;34462;51.368;12.364;2023-05-10T07:10:03;21232.69;;;-141.84;43.45
15260;BME280;34462;51.368;12.364;2023-05-10T07:12:31;21171.69;;;-141.84;44.19
15260;BME280;34462;51.368;12.364;2023-05-10T07:14:59;21192.03;;;-141.84;44.05
15260;BME280;34462;51.368;12.364;2023-05-10T07:17:29;21155.44;;;-141.84;43.87
15260;BME280;34462;51.368;12.364;2023-05-10T07:19:57;21110.69;;;-141.84;44.47
15260;BME280;34462;51.368;12.364;2023-05-10T07:22:26;21143.22;;;-141.84;45.05
15260;BME280;34462;51.368;12.364;2023-05-10T07:24:54;21135.09;;;-141.84;45.05
15260;BME280;34462;51.368;12.364;2023-05-10T07:27:22;21124.94;;;-141.84;44.71
15260;BME280;34462;51.368;12.364;2023-05-10T07:29:50;21147.28;;;-141.84;44.65
15260;BME280;34462;51.368;12.364;2023-05-10T07:32:19;21187.97;;;-141.84;44.45
15260;BME280;34462;51.368;12.364;2023-05-10T07:34:48;21226.59;;;-141.84;44.67
15260;BME280;34462;51.368;12.364;2023-05-10T07:37:17;21240.81;;;-141.84;44.07
15260;BME280;34462;51.368;12.364;2023-05-10T07:39:45;21279.44;;;-141.84;43.92
15260;BME280;34462;51.368;12.364;2023-05-10T07:42:13;21354.66;;;-141.84;43.78
15260;BME280;34462;51.368;12.364;2023-05-10T07:44:41;21387.19;;;-141.84;43.37
15260;BME280;34462;51.368;12.364;2023-05-10T07:47:10;21440.06;;;-141.84;43.26
15260;BME280;34462;51.368;12.364;2023-05-10T07:49:38;21456.34;;;-141.84;42.56
15260;BME280;34462;51.368;12.364;2023-05-10T07:52:08;21492.94;;;-141.84;42.19
15260;BME280;34462;51.368;12.364;2023-05-10T07:54:36;21452.25;;;-141.84;42.36
15260;BME280;34462;51.368;12.364;2023-05-10T07:57:04;21452.25;;;-141.84;42.75
15260;BME280;34462;51.368;12.364;2023-05-10T07:59:33;21456.34;;;-141.84;42.84
15260;BME280;34462;51.368;12.364;2023-05-10T08:02:01;21425.84;;;-141.84;42.93
15260;BME280;34462;51.368;12.364;2023-05-10T08:04:29;21468.53;;;-141.84;43.21
15260;BME280;34462;51.368;12.364;2023-05-10T08:06:57;21446.16;;;-141.84;42.82
15260;BME280;34462;51.368;12.364;2023-05-10T08:09:27;21362.81;;;-141.84;44.03
15260;BME280;34462;51.368;12.364;2023-05-10T08:11:55;21425.84;;;-141.84;43.88
15260;BME280;34462;51.368;12.364;2023-05-10T08:14:23;21403.47;;;-141.84;44.31
15260;BME280;34462;51.368;12.364;2023-05-10T08:16:51;21318.06;;;-141.84;44.28
15260;BME280;34462;51.368;12.364;2023-05-10T08:19:19;21358.75;;;-141.84;44.09
15260;BME280;34462;51.368;12.364;2023-05-10T08:21:48;21314.00;;;-141.84;44.37
15260;BME280;34462;51.368;12.364;2023-05-10T08:24:16;21391.28;;;-141.84;44.26
15260;BME280;34462;51.368;12.364;2023-05-10T08:26:46;21478.69;;;-141.84;44.19
15260;BME280;34462;51.368;12.364;2023-05-10T08:29:14;21448.19;;;-141.84;44.12
15260;BME280;34462;51.368;12.364;2023-05-10T08:31:42;21360.78;;;-141.84;44.69
15260;BME280;34462;51.368;12.364;2023-05-10T08:34:12;21305.88;;;-141.84;45.91
15260;BME280;34462;51.368;12.364;2023-05-10T08:36:40;21311.97;;;-141.84;46.07
15260;BME280;34462;51.368;12.364;2023-05-10T08:39:08;21293.69;;;-141.84;46.75
15260;BME280;34462;51.368;12.364;2023-05-10T08:42:04;21301.81;;;-141.84;47.24
15260;BME280;34462;51.368;12.364;2023-05-10T08:44:34;21379.06;;;-141.84;46.32
15260;BME280;34462;51.368;12.364;2023-05-10T08:47:06;21311.97;;;-141.84;46.36
15260;BME280;34462;51.368;12.364;2023-05-10T08:49:35;21389.22;;;-141.84;46.27
15260;BME280;34462;51.368;12.364;2023-05-10T08:52:07;21293.69;;;-141.84;46.60
15260;BME280;34462;51.368;12.364;2023-05-10T08:54:36;21255.03;;;-141.84;48.05
15260;BME280;34462;51.368;12.364;2023-05-10T08:57:07;21187.97;;;-141.84;48.12
15260;BME280;34462;51.368;12.364;2023-05-10T08:59:35;21175.75;;;-141.84;49.36
15260;BME280;34462;51.368;12.364;2023-05-10T09:02:08;21139.16;;;-141.84;49.17
15260;BME280;34462;51.368;12.364;2023-05-10T09:04:38;21230.66;;;-141.84;49.16
15260;BME280;34462;51.368;12.364;2023-05-10T09:07:07;21131.03;;;-141.84;49.60
15260;BME280;34462;51.368;12.364;2023-05-10T09:09:36;21163.56;;;-141.84;49.69
15260;BME280;34462;51.368;12.364;2023-05-10T09:12:07;21055.81;;;-141.84;50.60
15260;BME280;34462;51.368;12.364;2023-05-10T09:14:38;20970.41;;;-141.84;51.66
15260;BME280;34462;51.368;12.364;2023-05-10T09:17:07;20966.34;;;-141.84;53.08
15260;BME280;34462;51.368;12.364;2023-05-10T09:19:35;20921.63;;;-141.84;55.26
15260;BME280;34462;51.368;12.364;2023-05-10T09:22:04;20862.69;;;-141.84;56.24
15260;BME280;34462;51.368;12.364;2023-05-10T09:24:32;20878.94;;;-141.84;56.78
15260;BME280;34462;51.368;12.364;2023-05-10T09:27:01;20791.53;;;-141.84;56.79
15260;BME280;34462;51.368;12.364;2023-05-10T09:29:41;20789.50;;;-141.84;58.94
15260;BME280;34462;51.368;12.364;2023-05-10T09:32:10;20732.56;;;-141.84;59.30
15260;BME280;34462;51.368;12.364;2023-05-10T09:34:39;20748.84;;;-141.84;60.30
15260;BME280;34462;51.368;12.364;2023-05-10T09:37:09;20673.63;;;-141.84;62.04
15260;BME280;34462;51.368;12.364;2023-05-10T09:39:38;20630.94;;;-141.84;64.10
15260;BME280;34462;51.368;12.364;2023-05-10T09:42:09;20545.56;;;-141.84;66.18
15260;BME280;34462;51.368;12.364;2023-05-10T09:44:39;20523.19;;;-141.84;68.36
15260;BME280;34462;51.368;12.364;2023-05-10T09:47:10;20511.00;;;-141.84;69.47
15260;BME280;34462;51.368;12.364;2023-05-10T09:49:38;20565.88;;;-141.84;70.15
15260;BME280;34462;51.368;12.364;2023-05-10T09:52:07;20460.19;;;-141.84;72.07
15260;BME280;34462;51.368;12.364;2023-05-10T09:54:45;20431.72;;;-141.84;71.84
15260;BME280;34462;51.368;12.364;2023-05-10T09:57:21;20456.13;;;-141.84;72.50
15260;BME280;34462;51.368;12.364;2023-05-10T09:59:51;20456.13;;;-141.84;72.26
15260;BME280;34462;51.368;12.364;2023-05-10T10:02:21;20490.66;;;-141.84;72.08
15260;BME280;34462;51.368;12.364;2023-05-10T10:04:56;20478.47;;;-141.84;71.53
15260;BME280;34462;51.368;12.364;2023-05-10T10:07:24;20531.31;;;-141.84;70.76
15260;BME280;34462;51.368;12.364;2023-05-10T10:09:53;20529.28;;;-141.84;71.22
15260;BME280;34462;51.368;12.364;2023-05-10T10:12:21;20515.06;;;-141.84;71.20
15260;BME280;34462;51.368;12.364;2023-05-10T10:14:51;20545.56;;;-141.84;70.20
15260;BME280;34462;51.368;12.364;2023-05-10T10:17:20;20537.44;;;-141.84;70.56
15260;BME280;34462;51.368;12.364;2023-05-10T10:19:49;20543.53;;;-141.84;70.85
15260;BME280;34462;51.368;12.364;2023-05-10T10:22:17;20574.00;;;-141.84;70.78
15260;BME280;34462;51.368;12.364;2023-05-10T10:24:45;20639.06;;;-141.84;69.52
15260;BME280;34462;51.368;12.364;2023-05-10T10:27:23;20555.72;;;-141.84;70.23
15260;BME280;34462;51.368;12.364;2023-05-10T10:30:03;20592.31;;;-141.84;70.47
15260;BME280;34462;51.368;12.364;2023-05-10T10:32:59;20610.59;;;-141.84;69.73
15260;BME280;34462;51.368;12.364;2023-05-10T10:35:40;20586.22;;;-141.84;70.56
15260;BME280;34462;51.368;12.364;2023-05-10T10:38:08;20580.13;;;-141.84;70.95
15260;BME280;34462;51.368;12.364;2023-05-10T10:40:36;20592.31;;;-141.84;71.04
15260;BME280;34462;51.368;12.364;2023-05-10T10:43:26;20569.94;;;-141.84;72.08
15260;BME280;34462;51.368;12.364;2023-05-10T10:46:17;20578.09;;;-141.84;72.32
15260;BME280;34462;51.368;12.364;2023-05-10T10:49:08;20649.22;;;-141.84;71.75
15260;BME280;34462;51.368;12.364;2023-05-10T10:51:37;20659.38;;;-141.84;71.32
15260;BME280;34462;51.368;12.364;2023-05-10T10:54:09;20641.09;;;-141.84;70.73
15260;BME280;34462;51.368;12.364;2023-05-10T10:56:38;20628.91;;;-141.84;70.87
15260;BME280;34462;51.368;12.364;2023-05-10T10:59:07;20630.94;;;-141.84;70.57
15260;BME280;34462;51.368;12.364;2023-05-10T11:01:41;20592.31;;;-141.84;71.43
15260;BME280;34462;51.368;12.364;2023-05-10T11:04:18;20582.16;;;-141.84;72.20
15260;BME280;34462;51.368;12.364;2023-05-10T11:06:47;20582.16;;;-141.84;71.70
15260;BME280;34462;51.368;12.364;2023-05-10T11:09:15;20582.16;;;-141.84;72.26
15260;BME280;34462;51.368;12.364;2023-05-10T11:11:51;20557.75;;;-141.84;72.83
15260;BME280;34462;51.368;12.364;2023-05-10T11:14:22;20541.50;;;-141.84;73.97
15260;BME280;34462;51.368;12.364;2023-05-10T11:16:52;20533.34;;;-141.84;74.38
15260;BME280;34462;51.368;12.364;2023-05-10T11:19:20;20517.09;;;-141.84;74.91
15260;BME280;34462;51.368;12.364;2023-05-10T11:21:50;20541.50;;;-141.84;75.24
15260;BME280;34462;51.368;12.364;2023-05-10T11:24:22;20531.31;;;-141.84;74.74
15260;BME280;34462;51.368;12.364;2023-05-10T11:26:51;20476.44;;;-141.84;75.67
15260;BME280;34462;51.368;12.364;2023-05-10T11:29:19;20517.09;;;-141.84;76.02
15260;BME280;34462;51.368;12.364;2023-05-10T11:31:49;20506.94;;;-141.84;76.14
15260;BME280;34462;51.368;12.364;2023-05-10T11:34:26;20492.72;;;-141.84;76.44
15260;BME280;34462;51.368;12.364;2023-05-10T11:36:57;20508.97;;;-141.84;76.50
15260;BME280;34462;51.368;12.364;2023-05-10T11:39:30;20521.16;;;-141.84;76.88
15260;BME280;34462;51.368;12.364;2023-05-10T11:41:59;20533.34;;;-141.84;76.65
15260;BME280;34462;51.368;12.364;2023-05-10T11:44:30;20537.44;;;-141.84;75.87
15260;BME280;34462;51.368;12.364;2023-05-10T11:46:59;20600.44;;;-141.84;75.21
15260;BME280;34462;51.368;12.364;2023-05-10T11:49:29;20643.13;;;-141.84;73.78
15260;BME280;34462;51.368;12.364;2023-05-10T11:52:04;20681.75;;;-141.84;72.11
15260;BME280;34462;51.368;12.364;2023-05-10T11:54:33;20706.16;;;-141.84;72.38
15260;BME280;34462;51.368;12.364;2023-05-10T11:57:02;20695.97;;;-141.84;71.10
15260;BME280;34462;51.368;12.364;2023-05-10T11:59:30;20752.91;;;-141.84;71.48
15260;BME280;34462;51.368;12.364;2023-05-10T12:01:59;20720.38;;;-141.84;71.73
15260;BME280;34462;51.368;12.364;2023-05-10T12:04:29;20730.53;;;-141.84;70.55
15260;BME280;34462;51.368;12.364;2023-05-10T12:06:57;20691.91;;;-141.84;70.99
15260;BME280;34462;51.368;12.364;2023-05-10T12:09:25;20657.34;;;-141.84;72.29
15260;BME280;34462;51.368;12.364;2023-05-10T12:11:56;20635.00;;;-141.84;72.69
15260;BME280;34462;51.368;12.364;2023-05-10T12:14:24;20618.72;;;-141.84;73.15
15260;BME280;34462;51.368;12.364;2023-05-10T12:16:53;20622.81;;;-141.84;73.29
15260;BME280;34462;51.368;12.364;2023-05-10T12:19:21;20681.75;;;-141.84;72.76
15260;BME280;34462;51.368;12.364;2023-05-10T12:21:50;20698.00;;;-141.84;73.08
15260;BME280;34462;51.368;12.364;2023-05-10T12:24:19;20718.34;;;-141.84;72.04
15260;BME280;34462;51.368;12.364;2023-05-10T12:26:48;20738.66;;;-141.84;72.24
15260;BME280;34462;51.368;12.364;2023-05-10T12:29:18;20763.06;;;-141.84;70.85
15260;BME280;34462;51.368;12.364;2023-05-10T12:31:54;20732.56;;;-141.84;71.15
15260;BME280;34462;51.368;12.364;2023-05-10T12:34:25;20750.88;;;-141.84;71.93
15260;BME280;34462;51.368;12.364;2023-05-10T12:36:55;20738.66;;;-141.84;72.11
15260;BME280;34462;51.368;12.364;2023-05-10T12:39:24;20740.69;;;-141.84;72.62
15260;BME280;34462;51.368;12.364;2023-05-10T12:41:52;20759.00;;;-141.84;71.25
15260;BME280;34462;51.368;12.364;2023-05-10T12:44:21;20803.72;;;-141.84;70.06
15260;BME280;34462;51.368;12.364;2023-05-10T12:46:49;20771.19;;;-141.84;70.48
15260;BME280;34462;51.368;12.364;2023-05-10T12:49:17;20809.81;;;-141.84;70.41